.
WxDataArchive / Data Records for 2006-04-27
2006-04-26 April 2006 2006-04-28

Data Records for Thursday, 27 April 2006

Time	Temp	Chill	HIndex	Humid	Dewpt	 Wind 	HiWind	WindDir	Rain 	Barom 
-----	----	-----	------	-----	-----	------	------	-------	-----	----- 
00:00	43.1	43.1	43.1	58	29.3	0	0	---	0.00	29.916 
00:05	42.9	42.9	42.9	59	29.6	0	0	---	0.00	29.916 
00:10	42.8	42.8	42.8	59	29.5	0	0	---	0.00	29.916 
00:15	42.5	42.5	42.5	60	29.6	0	0	---	0.00	29.916 
00:20	42.2	42.2	42.2	59	28.9	0	0	---	0.00	29.916 
00:25	41.9	41.9	41.9	60	29.0	0	0	---	0.00	29.916 
00:30	41.8	41.8	41.8	62	29.7	0	0	---	0.00	29.912 
00:35	41.6	41.6	41.6	63	30.0	0	0	---	0.00	29.912 
00:40	41.5	41.5	41.5	63	29.9	0	0	---	0.00	29.912 
00:45	41.3	41.3	41.3	63	29.7	0	0	---	0.00	29.909 
00:50	41.3	41.3	41.3	64	30.1	0	0	---	0.00	29.909 
00:55	41.3	41.3	41.3	64	30.1	0	0	---	0.00	29.909 
01:00	41.3	41.3	41.3	65	30.4	0	0	---	0.00	29.907 
01:05	41.3	41.3	41.3	65	30.4	0	0	---	0.00	29.907 
01:10	41.3	41.3	41.3	65	30.4	0	0	---	0.00	29.907 
01:15	41.3	41.3	41.3	63	29.7	0	0	---	0.00	29.905 
01:20	41.3	41.3	41.3	65	30.4	0	0	---	0.00	29.905 
01:25	41.5	41.5	41.5	65	30.6	0	0	---	0.00	29.905 
01:30	41.5	41.5	41.5	65	30.6	0	0	---	0.00	29.905 
01:35	41.3	41.3	41.3	64	30.1	0	0	---	0.00	29.905 
01:40	41.2	41.2	41.2	64	30.0	0	0	---	0.00	29.905 
01:45	41.2	41.2	41.2	65	30.3	0	0	---	0.00	29.905 
01:50	41.1	41.1	41.1	65	30.2	0	0	---	0.00	29.905 
01:55	40.8	40.8	40.8	66	30.3	0	0	---	0.00	29.905 
02:00	40.8	40.8	40.8	65	30.0	0	0	---	0.00	29.905 
02:05	40.9	40.9	40.9	63	29.3	0	0	---	0.00	29.905 
02:10	41.1	41.1	41.1	63	29.5	0	0	---	0.00	29.905 
02:15	41.2	41.2	41.2	62	29.2	0	0	---	0.00	29.903 
02:20	41.5	41.5	41.5	61	29.1	0	0	---	0.00	29.903 
02:25	41.6	41.6	41.6	61	29.2	0	0	---	0.00	29.903 
02:30	41.6	41.6	41.6	61	29.2	0	0	---	0.00	29.902 
02:35	41.5	41.5	41.5	60	28.7	0	0	---	0.00	29.902 
02:40	41.6	41.6	41.6	58	27.9	0	0	---	0.00	29.902 
02:45	41.6	41.6	41.6	60	28.8	0	0	---	0.00	29.903 
02:50	41.6	41.6	41.6	59	28.3	0	0	---	0.00	29.903 
02:55	41.5	41.5	41.5	61	29.1	0	0	---	0.00	29.903 
03:00	41.3	41.3	41.3	61	28.9	0	0	---	0.00	29.902 
03:05	41.1	41.1	41.1	61	28.7	0	0	---	0.00	29.902 
03:10	40.8	40.8	40.8	62	28.8	0	0	---	0.00	29.902 
03:15	40.6	40.6	40.6	63	29.0	0	0	---	0.00	29.897 
03:20	40.6	40.6	40.6	62	28.6	0	0	---	0.00	29.897 
03:25	40.6	40.6	40.6	61	28.2	0	0	---	0.00	29.897 
03:30	40.8	40.8	40.8	60	28.0	0	0	---	0.00	29.895 
03:35	40.8	40.8	40.8	61	28.4	0	0	---	0.00	29.895 
03:40	40.8	40.8	40.8	60	28.0	0	0	---	0.00	29.895 
03:45	40.9	40.9	40.9	59	27.7	0	0	---	0.00	29.895 
03:50	41.2	41.2	41.2	58	27.6	0	0	---	0.00	29.895 
03:55	41.5	41.5	41.5	57	27.4	0	0	---	0.00	29.895 
04:00	41.6	41.6	41.6	56	27.1	0	0	---	0.00	29.896 
04:05	41.9	41.9	41.9	56	27.4	0	0	---	0.00	29.896 
04:10	42.1	42.1	42.1	56	27.5	0	1	292	0.00	29.896 
04:15	42.2	42.2	42.2	54	26.8	0	1	292	0.00	29.900 
04:20	42.5	42.5	42.5	54	27.0	0	1	292	0.00	29.900 
04:25	42.6	42.6	42.6	54	27.1	0	1	292	0.00	29.900 
04:30	42.8	42.8	42.8	54	27.3	0	1	292	0.00	29.898 
04:35	42.9	42.9	42.9	53	27.0	0	1	292	0.00	29.898 
04:40	43.1	43.1	43.1	53	27.1	0	1	292	0.00	29.898 
04:45	43.1	43.1	43.1	53	27.1	0	1	292	0.00	29.900 
04:50	43.1	43.1	43.1	53	27.1	0	1	292	0.00	29.900 
04:55	43.1	43.1	43.1	54	27.6	0	1	292	0.00	29.900 
05:00	43.1	43.1	43.1	54	27.6	0	2	292	0.00	29.901 
05:05	43.1	43.1	43.1	54	27.6	0	1	292	0.00	29.901 
05:10	42.9	42.9	42.9	54	27.4	0	1	292	0.00	29.901 
05:15	42.8	42.8	42.8	54	27.3	0	1	292	0.00	29.901 
05:20	42.8	42.8	42.8	55	27.8	0	1	292	0.00	29.901 
05:25	42.6	42.6	42.6	55	27.6	0	1	292	0.00	29.901 
05:30	42.5	42.5	42.5	56	27.9	0	1	292	0.00	29.901 
05:35	42.5	42.5	42.5	56	27.9	0	2	270	0.00	29.901 
05:40	42.6	42.6	42.6	56	28.0	0	2	270	0.00	29.901 
05:45	42.6	42.6	42.6	56	28.0	0	2	248	0.00	29.902 
05:50	42.6	42.6	42.6	56	28.0	1	3	248	0.00	29.902 
05:55	42.6	42.6	42.6	56	28.0	0	2	248	0.00	29.902 
06:00	42.6	42.6	42.6	57	28.4	0	1	248	0.00	29.904 
06:05	42.5	42.5	42.5	57	28.4	0	1	248	0.00	29.904 
06:10	42.5	42.5	42.5	57	28.4	0	1	248	0.00	29.904 
06:15	42.3	42.3	42.3	58	28.6	0	1	248	0.00	29.910 
06:20	42.2	42.2	42.2	58	28.5	0	1	248	0.00	29.910 
06:25	42.1	42.1	42.1	59	28.8	0	1	248	0.00	29.910 
06:30	42.1	42.1	42.1	59	28.8	0	2	248	0.00	29.913 
06:35	42.1	42.1	42.1	59	28.8	0	3	248	0.00	29.913 
06:40	42.2	42.2	42.2	59	28.9	1	2	248	0.00	29.913 
06:45	42.3	42.3	42.3	59	29.0	0	1	248	0.00	29.915 
06:50	42.3	42.3	42.3	60	29.4	0	1	248	0.00	29.915 
06:55	42.2	42.2	42.2	60	29.3	0	1	248	0.00	29.915 
07:00	42.2	42.2	42.2	60	29.3	0	1	248	0.00	29.916 
07:05	42.2	42.2	42.2	61	29.7	0	1	248	0.00	29.916 
07:10	42.2	42.2	42.2	61	29.7	0	1	248	0.00	29.916 
07:15	42.2	42.2	42.2	62	30.1	0	1	248	0.00	29.919 
07:20	42.3	42.3	42.3	61	29.8	0	2	248	0.00	29.919 
07:25	42.8	42.8	42.8	61	30.3	0	1	248	0.00	29.919 
07:30	43.2	43.2	43.2	61	30.7	0	1	248	0.00	29.921 
07:35	43.6	43.6	43.6	60	30.6	0	1	248	0.00	29.921 
07:40	44.1	44.1	44.1	60	31.1	0	1	248	0.00	29.921 
07:45	44.6	44.6	44.6	60	31.6	1	2	248	0.00	29.924 
07:50	45.2	45.2	45.2	58	31.3	1	2	248	0.00	29.924 
07:55	45.7	45.7	45.7	58	31.8	1	3	248	0.00	29.924 
08:00	46.2	46.2	46.2	58	32.2	1	2	248	0.00	29.930 
08:05	46.7	46.7	46.7	56	31.8	1	3	248	0.00	29.930 
08:10	47.3	47.3	47.3	55	32.0	1	2	248	0.00	29.930 
08:15	47.7	47.7	47.7	56	32.8	1	3	248	0.00	29.932 
08:20	48.3	48.3	48.3	54	32.4	1	4	248	0.00	29.932 
08:25	49.1	49.1	49.1	54	33.2	2	4	270	0.00	29.932 
08:30	49.8	49.8	49.8	52	32.9	2	4	248	0.00	29.930 
08:35	50.4	50.4	50.4	52	33.4	1	3	248	0.00	29.930 
08:40	51.1	51.1	51.1	50	33.1	2	3	248	0.00	29.930 
08:45	51.6	51.6	51.6	48	32.6	2	4	248	0.00	29.929 
08:50	52.2	52.2	52.2	50	34.1	2	4	248	0.00	29.929 
08:55	52.8	52.8	52.8	51	35.2	2	4	270	0.00	29.929 
09:00	53.3	53.3	53.3	49	34.6	2	4	270	0.00	29.929 
09:05	53.6	53.6	53.6	46	33.3	2	4	270	0.00	29.929 
09:10	54.1	54.1	54.1	46	33.8	2	5	292	0.00	29.929 
09:15	54.5	54.5	54.5	47	34.7	2	4	270	0.00	29.932 
09:20	54.8	54.8	54.8	48	35.5	2	3	248	0.00	29.932 
09:25	55.3	55.3	55.3	45	34.3	2	3	248	0.00	29.932 
09:30	55.9	55.9	55.9	46	35.4	2	3	248	0.00	29.930 
09:35	56.3	56.3	56.3	48	36.9	2	4	248	0.00	29.930 
09:40	57.0	57.0	57.0	48	37.5	1	4	248	0.00	29.930 
09:45	57.5	57.5	57.5	43	35.2	2	4	248	0.00	29.930 
09:50	57.8	57.8	57.8	46	37.2	1	3	248	0.00	29.930 
09:55	58.1	58.1	58.1	46	37.4	2	3	248	0.00	29.930 
10:00	58.6	58.6	58.6	43	36.2	2	3	248	0.00	29.929 
10:05	59.2	59.2	59.2	44	37.3	1	3	248	0.00	29.929 
10:10	59.8	59.8	59.8	40	35.4	2	4	248	0.00	29.929 
10:15	59.9	59.9	59.9	42	36.8	2	4	270	0.00	29.931 
10:20	60.2	60.2	60.2	40	35.8	2	4	248	0.00	29.931 
10:25	60.7	60.7	60.7	40	36.2	1	3	338	0.00	29.931 
10:30	60.9	60.9	60.9	39	35.8	2	6	315	0.00	29.936 
10:35	61.5	61.5	61.5	41	37.6	1	4	248	0.00	29.936 
10:40	62.0	62.0	62.0	40	37.4	2	4	270	0.00	29.936 
10:45	62.1	62.1	62.1	37	35.5	2	6	270	0.00	29.937 
10:50	62.1	62.1	62.1	37	35.5	3	5	270	0.00	29.937 
10:55	62.4	62.4	62.4	38	36.5	2	5	248	0.00	29.937 
11:00	62.9	62.9	62.9	39	37.6	2	4	315	0.00	29.941 
11:05	63.4	63.4	63.4	37	36.7	1	4	338	0.00	29.941 
11:10	63.7	63.7	63.7	42	40.2	2	5	248	0.00	29.941 
11:15	64.0	64.0	64.0	37	37.2	2	4	248	0.00	29.944 
11:20	64.5	64.5	64.5	41	40.3	2	4	292	0.00	29.944 
11:25	64.7	64.7	64.7	37	37.8	1	2	315	0.00	29.944 
11:30	65.0	65.0	65.0	35	36.7	2	4	248	0.00	29.941 
11:35	65.6	65.6	65.6	36	37.9	2	4	248	0.00	29.941 
11:40	66.1	66.1	66.1	35	37.6	1	4	248	0.00	29.941 
11:45	66.0	66.0	66.0	30	33.7	2	6	315	0.00	29.942 
11:50	66.3	66.3	66.3	32	35.6	2	5	292	0.00	29.942 
11:55	66.1	66.1	66.1	31	34.6	3	7	270	0.00	29.942 
12:00	66.4	66.4	66.4	31	34.8	2	5	248	0.00	29.943 
12:05	66.9	66.9	66.9	29	33.6	2	4	248	0.00	29.943 
12:10	67.1	67.1	67.1	31	35.4	2	4	315	0.00	29.943 
12:15	67.3	67.3	67.3	29	33.9	3	6	248	0.00	29.943 
12:20	67.4	67.4	67.4	27	32.3	2	5	292	0.00	29.943 
12:25	67.6	67.6	67.6	34	38.2	2	4	270	0.00	29.943 
12:30	68.1	68.1	68.1	30	35.5	2	5	270	0.00	29.940 
12:35	68.3	68.3	68.3	28	33.9	3	4	248	0.00	29.940 
12:40	68.3	68.3	68.3	29	34.8	3	4	270	0.00	29.940 
12:45	68.4	68.4	68.4	28	34.0	3	9	270	0.00	29.937 
12:50	68.4	68.4	68.4	28	34.0	2	4	270	0.00	29.937 
12:55	68.6	68.6	68.6	28	34.2	2	4	270	0.00	29.937 
13:00	68.6	68.6	68.6	31	36.8	1	3	315	0.00	29.929 
13:05	68.6	68.6	68.6	28	34.2	2	5	292	0.00	29.929 
13:10	68.6	68.6	68.6	28	34.2	3	7	270	0.00	29.929 
13:15	68.8	68.8	68.8	26	32.5	2	5	315	0.00	29.928 
13:20	69.3	69.3	69.3	27	33.9	2	6	248	0.00	29.928 
13:25	69.4	69.4	69.4	27	34.0	2	4	270	0.00	29.928 
13:30	69.9	69.9	69.9	28	35.3	2	5	270	0.00	29.929 
13:35	69.6	69.6	69.6	27	34.1	3	7	270	0.00	29.929 
13:40	69.4	69.4	69.4	28	34.9	3	9	270	0.00	29.929 
13:45	69.4	69.4	69.4	27	34.0	3	6	270	0.00	29.928 
13:50	69.3	69.3	69.3	27	33.9	3	6	338	0.00	29.928 
13:55	69.1	69.1	69.1	25	31.8	2	5	338	0.00	29.928 
14:00	69.6	69.6	69.6	28	35.0	2	5	270	0.00	29.934 
14:05	69.8	69.8	69.8	27	34.3	2	6	248	0.00	29.934 
14:10	69.9	69.9	69.9	29	36.2	3	10	270	0.00	29.934 
14:15	69.9	69.9	69.9	28	35.3	3	4	270	0.00	29.929 
14:20	69.9	69.9	69.9	27	34.4	4	6	270	0.00	29.929 
14:25	69.9	69.9	69.9	26	33.4	2	5	270	0.00	29.929 
14:30	70.1	70.1	70.1	29	36.4	2	6	338	0.00	29.927 
14:35	70.6	70.6	70.6	27	35.0	2	6	338	0.00	29.927 
14:40	70.4	70.4	70.4	28	35.7	2	5	270	0.00	29.927 
14:45	70.1	70.1	70.1	25	32.6	3	6	338	0.00	29.926 
14:50	70.3	70.3	70.3	28	35.6	2	5	22	0.00	29.926 
14:55	69.9	69.9	69.9	25	32.5	2	5	270	0.00	29.926 
15:00	69.9	69.9	69.9	27	34.4	2	5	338	0.00	29.925 
15:05	69.8	69.8	69.8	28	35.2	3	6	338	0.00	29.925 
15:10	69.9	69.9	69.9	26	33.4	2	7	338	0.00	29.925 
15:15	70.1	70.1	70.1	28	35.5	3	6	270	0.00	29.924 
15:20	70.4	70.4	70.4	25	32.9	2	4	270	0.00	29.924 
15:25	70.9	70.9	70.9	26	34.3	1	4	315	0.00	29.924 
15:30	70.8	70.8	70.8	28	36.1	2	6	338	0.00	29.921 
15:35	70.8	70.8	70.8	26	34.2	3	7	270	0.00	29.921 
15:40	70.9	70.9	70.9	28	36.2	1	3	315	0.00	29.921 
15:45	71.8	71.8	71.8	26	35.1	3	6	270	0.00	29.915 
15:50	71.6	71.6	71.6	26	34.9	3	10	248	0.00	29.915 
15:55	71.5	71.5	71.5	26	34.8	3	5	270	0.00	29.915 
16:00	71.5	71.5	71.5	25	33.8	2	6	248	0.00	29.915 
16:05	71.3	71.3	71.3	25	33.7	2	5	270	0.00	29.915 
16:10	70.3	70.3	70.3	25	32.8	2	6	315	0.00	29.915 
16:15	70.1	70.1	70.1	25	32.6	2	4	248	0.00	29.916 
16:20	70.6	70.6	70.6	26	34.0	2	6	270	0.00	29.916 
16:25	70.6	70.6	70.6	23	31.0	1	3	292	0.00	29.916 
16:30	70.9	70.9	70.9	26	34.3	1	5	270	0.00	29.911 
16:35	70.9	70.9	70.9	25	33.3	3	7	248	0.00	29.911 
16:40	70.9	70.9	70.9	28	36.2	2	5	315	0.00	29.911 
16:45	71.1	71.1	71.1	27	35.4	1	3	315	0.00	29.910 
16:50	71.3	71.3	71.3	28	36.5	1	3	315	0.00	29.910 
16:55	71.3	71.3	71.3	25	33.7	1	4	0	0.00	29.910 
17:00	71.6	71.6	71.6	26	34.9	3	7	248	0.00	29.909 
17:05	71.8	71.8	71.8	26	35.1	2	8	270	0.00	29.909 
17:10	70.9	70.9	70.9	23	31.2	1	4	338	0.00	29.909 
17:15	70.9	70.9	70.9	24	32.3	2	7	292	0.00	29.911 
17:20	71.1	71.1	71.1	23	31.4	2	5	270	0.00	29.911 
17:25	70.4	70.4	70.4	23	30.8	1	4	0	0.00	29.911 
17:30	70.3	70.3	70.3	26	33.8	1	3	338	0.00	29.915 
17:35	70.4	70.4	70.4	24	31.9	1	6	315	0.00	29.915 
17:40	70.4	70.4	70.4	23	30.8	2	9	248	0.00	29.915 
17:45	70.6	70.6	70.6	27	35.0	2	6	248	0.00	29.916 
17:50	70.4	70.4	70.4	25	32.9	1	3	315	0.00	29.916 
17:55	70.6	70.6	70.6	22	29.9	2	5	315	0.00	29.916 
18:00	70.4	70.4	70.4	22	29.7	1	4	338	0.00	29.922 
18:05	70.3	70.3	70.3	22	29.7	1	2	315	0.00	29.922 
18:10	70.1	70.1	70.1	23	30.6	1	5	270	0.00	29.922 
18:15	69.9	69.9	69.9	22	29.3	1	4	292	0.00	29.925 
18:20	69.6	69.6	69.6	25	32.2	2	5	292	0.00	29.925 
18:25	69.6	69.6	69.6	23	30.2	1	4	315	0.00	29.925 
18:30	69.8	69.8	69.8	24	31.4	1	4	270	0.00	29.929 
18:35	69.8	69.8	69.8	23	30.3	1	3	270	0.00	29.929 
18:40	69.6	69.6	69.6	24	31.2	1	3	270	0.00	29.929 
18:45	69.4	69.4	69.4	24	31.0	2	3	270	0.00	29.931 
18:50	69.1	69.1	69.1	25	31.8	1	3	270	0.00	29.931 
18:55	69.1	69.1	69.1	25	31.8	1	3	292	0.00	29.931 
19:00	68.9	68.9	68.9	25	31.6	1	3	270	0.00	29.934 
19:05	68.6	68.6	68.6	24	30.4	1	4	338	0.00	29.934 
19:10	68.4	68.4	68.4	24	30.2	1	2	315	0.00	29.934 
19:15	68.3	68.3	68.3	25	31.1	1	4	315	0.00	29.932 
19:20	67.9	67.9	67.9	26	31.7	1	4	270	0.00	29.932 
19:25	67.6	67.6	67.6	26	31.5	2	5	270	0.00	29.932 
19:30	67.1	67.1	67.1	25	30.1	2	6	338	0.00	29.938 
19:35	66.8	66.8	66.8	26	30.8	2	4	292	0.00	29.938 
19:40	66.4	66.4	66.4	25	29.5	2	6	315	0.00	29.938 
19:45	66.3	66.3	66.3	27	31.3	1	4	292	0.00	29.940 
19:50	66.0	66.0	66.0	26	30.1	1	3	292	0.00	29.940 
19:55	65.6	65.6	65.6	26	29.8	1	2	315	0.00	29.940 
20:00	65.5	65.5	65.5	27	30.6	1	3	315	0.00	29.943 
20:05	65.2	65.2	65.2	27	30.4	1	3	338	0.00	29.943 
20:10	64.7	64.7	64.7	27	29.9	0	2	292	0.00	29.943 
20:15	64.2	64.2	64.2	28	30.4	0	4	270	0.00	29.950 
20:20	64.0	64.0	64.0	27	29.4	0	2	292	0.00	29.950 
20:25	63.7	63.7	63.7	28	30.0	0	4	292	0.00	29.950 
20:30	63.4	63.4	63.4	31	32.2	0	2	270	0.00	29.955 
20:35	62.9	62.9	62.9	30	31.0	0	1	270	0.00	29.955 
20:40	62.6	62.6	62.6	30	30.7	0	1	270	0.00	29.955 
20:45	62.1	62.1	62.1	31	31.1	0	1	270	0.00	29.968 
20:50	61.8	61.8	61.8	32	31.6	1	3	270	0.00	29.968 
20:55	61.3	61.3	61.3	38	35.5	2	5	90	0.00	29.968 
21:00	60.2	60.2	60.2	42	37.0	2	6	90	0.00	29.985 
21:05	59.2	59.2	59.2	43	36.7	4	10	90	0.00	29.985 
21:10	58.7	58.7	58.7	43	36.3	3	7	112	0.00	29.985 
21:15	58.4	58.4	58.4	44	36.6	3	6	90	0.00	29.993 
21:20	58.1	58.1	58.1	43	35.7	3	6	90	0.00	29.993 
21:25	57.8	57.8	57.8	42	34.9	4	7	90	0.00	29.993 
21:30	57.6	57.6	57.6	42	34.7	3	9	90	0.00	30.001 
21:35	57.3	57.3	57.3	43	35.0	3	6	90	0.00	30.001 
21:40	57.0	57.0	57.0	43	34.7	4	12	112	0.00	30.001 
21:45	56.7	56.7	56.7	42	33.9	4	12	90	0.00	30.014 
21:50	56.5	56.5	56.5	42	33.7	4	7	112	0.00	30.014 
21:55	56.2	56.2	56.2	42	33.4	3	7	90	0.00	30.014 
22:00	55.7	55.7	55.7	41	32.4	4	8	90	0.00	30.022 
22:05	55.6	55.6	55.6	41	32.3	3	9	90	0.00	30.022 
22:10	55.3	55.3	55.3	42	32.6	3	7	112	0.00	30.022 
22:15	55.0	55.0	55.0	43	32.9	3	6	112	0.00	30.028 
22:20	54.7	54.7	54.7	43	32.6	5	13	90	0.00	30.028 
22:25	54.5	54.5	54.5	43	32.5	5	12	90	0.00	30.028 
22:30	54.2	54.2	54.2	44	32.8	3	6	90	0.00	30.036 
22:35	53.9	53.9	53.9	44	32.5	4	10	90	0.00	30.036 
22:40	53.6	53.6	53.6	45	32.8	4	9	90	0.00	30.036 
22:45	53.3	53.3	53.3	45	32.5	4	10	112	0.00	30.045 
22:50	53.1	53.1	53.1	46	32.9	4	7	90	0.00	30.045 
22:55	52.9	52.9	52.9	47	33.2	4	7	112	0.00	30.045 
23:00	52.6	52.6	52.6	48	33.5	4	9	112	0.00	30.048 
23:05	52.2	52.2	52.2	50	34.1	4	11	90	0.00	30.048 
23:10	51.9	51.9	51.9	52	34.8	5	12	112	0.00	30.048 
23:15	51.6	51.6	51.6	53	35.0	4	9	90	0.00	30.048 
23:20	51.4	51.4	51.4	53	34.8	4	10	90	0.00	30.048 
23:25	51.1	51.1	51.1	54	35.0	4	7	90	0.00	30.048 
23:30	51.0	51.0	51.0	54	34.9	3	5	90	0.00	30.054 
23:35	50.7	50.7	50.7	55	35.1	3	6	90	0.00	30.054 
23:40	50.4	50.4	50.4	56	35.3	3	4	90	0.00	30.054 
23:45	50.2	50.2	50.2	55	34.7	3	6	90	0.00	30.058 
23:50	50.1	50.1	50.1	54	34.1	3	6	90	0.00	30.058 
23:55	50.1	50.1	50.1	54	34.1	3	6	90	0.00	30.058 

CoCoRaHS
IN-AL-39
A2 Web Hosting
Creative Commons License
GoDaddy
Look for:

loaded 2017-10-17 22:15:42 • last modified 2010-11-18 10:43:29
Privacy PolicyDisclaimer
• wx.awcolley.com is powered by PmWiki v.2002016 •
• all content (unless otherwise noted) © 2017 A W Colley